createdAt,value
2022-08-03T00:01:03.666Z,4.25
2022-08-03T00:03:32.094Z,3.90
2022-08-03T00:06:04.133Z,4.25
2022-08-03T00:08:34.183Z,3.95
2022-08-03T00:11:09.508Z,4.53
2022-08-03T00:13:37.461Z,4.40
2022-08-03T00:16:13.273Z,3.80
2022-08-03T00:18:46.708Z,3.67
2022-08-03T00:21:16.466Z,3.88
2022-08-03T00:23:51.343Z,3.55
2022-08-03T00:26:29.057Z,3.58
2022-08-03T00:28:58.781Z,3.65
2022-08-03T00:31:39.850Z,3.58
2022-08-03T00:34:36.283Z,3.40
2022-08-03T00:37:15.144Z,4.70
2022-08-03T00:39:44.808Z,3.83
2022-08-03T00:42:12.958Z,3.95
2022-08-03T00:44:43.279Z,3.88
2022-08-03T00:47:12.203Z,4.13
2022-08-03T00:50:01.195Z,4.00
2022-08-03T00:52:30.176Z,3.88
2022-08-03T00:55:00.469Z,3.80
2022-08-03T00:57:37.900Z,3.65
2022-08-03T01:00:09.398Z,3.47
2022-08-03T01:02:39.661Z,3.67
2022-08-03T01:05:16.915Z,3.55
2022-08-03T01:08:14.003Z,3.83
2022-08-03T01:11:06.846Z,3.10
2022-08-03T01:14:19.390Z,3.53
2022-08-03T01:17:26.838Z,4.00
2022-08-03T01:20:05.001Z,3.40
2022-08-03T01:22:38.649Z,4.22
2022-08-03T01:25:45.502Z,3.60
2022-08-03T01:28:50.754Z,3.38
2022-08-03T01:31:24.100Z,3.65
2022-08-03T01:34:00.173Z,3.60
2022-08-03T01:36:35.224Z,3.50
2022-08-03T01:39:08.589Z,3.72
2022-08-03T01:41:59.431Z,3.15
2022-08-03T01:44:42.498Z,3.80
2022-08-03T01:47:11.504Z,3.40
2022-08-03T01:49:56.217Z,3.53
2022-08-03T01:52:24.754Z,3.42
2022-08-03T01:54:53.456Z,3.38
2022-08-03T01:57:26.815Z,3.63
2022-08-03T02:00:00.838Z,3.80
2022-08-03T02:02:44.499Z,3.50
2022-08-03T02:05:18.949Z,3.53
2022-08-03T02:07:49.437Z,3.42
2022-08-03T02:10:34.366Z,3.55
2022-08-03T02:13:06.468Z,3.38
2022-08-03T02:15:39.950Z,3.75
2022-08-03T02:18:09.500Z,3.40
2022-08-03T02:20:40.460Z,3.40
2022-08-03T02:23:10.296Z,3.45
2022-08-03T02:26:05.167Z,3.42
2022-08-03T02:28:40.201Z,3.80
2022-08-03T02:31:26.898Z,4.03
2022-08-03T02:33:57.797Z,3.17
2022-08-03T02:36:39.331Z,3.47
2022-08-03T02:39:17.508Z,3.78
2022-08-03T02:41:53.166Z,3.97
2022-08-03T02:47:21.957Z,3.80
2022-08-03T02:49:56.650Z,3.20
2022-08-03T02:52:40.628Z,3.35
2022-08-03T02:55:10.886Z,3.30
2022-08-03T02:57:45.664Z,3.78
2022-08-03T03:00:27.702Z,3.70
2022-08-03T03:03:13.009Z,3.28
2022-08-03T03:05:54.961Z,3.23
2022-08-03T03:08:36.925Z,3.50
2022-08-03T03:11:16.332Z,3.15
2022-08-03T03:13:52.724Z,3.70
2022-08-03T03:16:22.398Z,3.40
2022-08-03T03:18:53.125Z,3.17
2022-08-03T03:21:43.655Z,3.78
2022-08-03T03:24:25.026Z,3.05
2022-08-03T03:26:53.222Z,4.05
2022-08-03T03:29:23.954Z,3.78
2022-08-03T03:31:54.196Z,3.67
2022-08-03T03:34:25.422Z,3.90
2022-08-03T03:36:54.906Z,3.80
2022-08-03T03:39:25.249Z,3.88
2022-08-03T03:41:53.655Z,4.00
2022-08-03T03:44:20.518Z,3.50
2022-08-03T03:46:50.199Z,3.72
2022-08-03T03:49:30.585Z,3.50
2022-08-03T03:52:01.133Z,3.83
2022-08-03T03:54:41.661Z,4.25
2022-08-03T03:57:12.896Z,4.03
2022-08-03T03:59:42.556Z,4.18
2022-08-03T04:02:19.124Z,4.03
2022-08-03T04:04:49.064Z,4.40
2022-08-03T04:07:20.564Z,4.03
2022-08-03T04:09:50.799Z,4.07
2022-08-03T04:12:21.932Z,3.92
2022-08-03T04:15:02.472Z,4.13
2022-08-03T04:17:32.598Z,4.22
2022-08-03T04:20:03.438Z,3.90
2022-08-03T04:22:33.434Z,4.38
2022-08-03T04:25:08.932Z,4.63
2022-08-03T04:27:41.714Z,4.75
2022-08-03T04:30:18.911Z,4.47
2022-08-03T04:32:57.865Z,4.82
2022-08-03T04:36:00.880Z,4.90
2022-08-03T04:38:43.829Z,4.90
2022-08-03T04:41:12.843Z,4.57
2022-08-03T04:43:42.530Z,4.40
2022-08-03T04:46:14.726Z,4.07
2022-08-03T04:48:44.705Z,4.70
2022-08-03T04:51:21.287Z,4.13
2022-08-03T04:53:49.180Z,4.07
2022-08-03T04:56:19.440Z,4.32
2022-08-03T04:58:47.106Z,4.68
2022-08-03T05:01:20.412Z,4.05
2022-08-03T05:03:50.980Z,3.95
2022-08-03T05:06:20.841Z,3.78
2022-08-03T05:08:54.254Z,4.57
2022-08-03T05:11:34.229Z,4.60
2022-08-03T05:14:11.480Z,4.55
2022-08-03T05:16:41.784Z,4.32
2022-08-03T05:19:13.186Z,4.43
2022-08-03T05:21:52.596Z,4.28
2022-08-03T05:24:28.756Z,4.47
2022-08-03T05:29:26.743Z,4.95
2022-08-03T05:31:57.608Z,4.85
2022-08-03T05:34:24.632Z,4.80
2022-08-03T05:36:51.631Z,4.72
2022-08-03T05:39:20.328Z,4.40
2022-08-03T05:41:48.210Z,4.32
2022-08-03T05:44:19.595Z,4.28
2022-08-03T05:46:50.900Z,4.07
2022-08-03T05:49:20.997Z,4.20
2022-08-03T05:52:00.113Z,4.20
2022-08-03T05:54:55.389Z,3.97
2022-08-03T05:57:30.322Z,4.88
2022-08-03T06:00:09.820Z,4.10
2022-08-03T06:02:46.477Z,4.10
2022-08-03T06:05:17.027Z,4.13
2022-08-03T06:07:46.816Z,4.00
2022-08-03T06:10:35.942Z,4.22
2022-08-03T06:13:07.247Z,4.25
2022-08-03T06:15:36.014Z,4.15
2022-08-03T06:18:05.345Z,5.28
2022-08-03T06:20:33.101Z,4.50
2022-08-03T06:23:01.509Z,4.88
2022-08-03T06:25:37.290Z,4.38
2022-08-03T06:28:35.264Z,5.78
2022-08-03T06:31:07.594Z,5.07
2022-08-03T06:33:48.312Z,4.95
2022-08-03T06:36:37.095Z,4.07
2022-08-03T06:39:16.676Z,4.05
2022-08-03T06:41:54.733Z,4.07
2022-08-03T06:44:24.973Z,4.20
2022-08-03T06:47:01.528Z,3.92
2022-08-03T06:49:31.891Z,3.35
2022-08-03T06:52:05.451Z,3.45
2022-08-03T06:54:37.919Z,3.45
2022-08-03T06:57:15.015Z,3.30
2022-08-03T07:00:09.297Z,3.00
2022-08-03T07:02:36.454Z,3.35
2022-08-03T07:05:12.344Z,3.53
2022-08-03T07:07:40.641Z,2.65
2022-08-03T07:10:09.475Z,2.53
2022-08-03T07:12:56.006Z,2.80
2022-08-03T07:15:54.265Z,3.13
2022-08-03T07:18:24.613Z,2.97
2022-08-03T07:20:58.892Z,3.22
2022-08-03T07:23:28.959Z,2.60
2022-08-03T07:25:58.613Z,3.17
2022-08-03T07:28:28.387Z,2.40
2022-08-03T07:31:05.018Z,3.00
2022-08-03T07:33:33.183Z,2.75
2022-08-03T07:36:03.243Z,2.58
2022-08-03T07:38:33.350Z,2.30
2022-08-03T07:41:03.523Z,2.45
2022-08-03T07:43:39.412Z,2.20
2022-08-03T07:46:10.766Z,2.30
2022-08-03T07:48:41.100Z,2.28
2022-08-03T07:51:11.148Z,2.20
2022-08-03T07:53:47.267Z,2.33
2022-08-03T07:56:24.691Z,2.33
2022-08-03T07:59:00.033Z,1.83
2022-08-03T08:01:28.156Z,2.40
2022-08-03T08:03:56.480Z,2.08
2022-08-03T08:06:26.694Z,1.70
2022-08-03T08:08:57.770Z,1.98
2022-08-03T08:11:29.097Z,1.98
2022-08-03T08:14:00.065Z,1.65
2022-08-03T08:16:29.873Z,1.70
2022-08-03T08:19:00.603Z,2.20
2022-08-03T08:21:53.545Z,2.50
2022-08-03T08:24:20.683Z,1.60
2022-08-03T08:26:56.638Z,1.77
2022-08-03T08:29:25.333Z,1.90
2022-08-03T08:31:55.556Z,1.70
2022-08-03T08:34:25.763Z,1.63
2022-08-03T08:37:04.996Z,1.67
2022-08-03T08:39:33.087Z,1.70
2022-08-03T08:42:09.548Z,1.80
2022-08-03T08:44:44.481Z,1.63
2022-08-03T08:47:14.501Z,1.70
2022-08-03T08:49:53.601Z,2.05
2022-08-03T08:52:36.477Z,1.58
2022-08-03T08:55:07.237Z,1.60
2022-08-03T08:57:43.061Z,1.70
2022-08-03T09:00:12.834Z,1.50
2022-08-03T09:02:47.505Z,1.83
2022-08-03T09:05:47.402Z,1.80
2022-08-03T09:08:16.856Z,2.10
2022-08-03T09:10:46.688Z,2.28
2022-08-03T09:13:16.792Z,1.80
2022-08-03T09:15:52.730Z,1.48
2022-08-03T09:18:33.294Z,2.03
2022-08-03T09:21:33.330Z,1.70
2022-08-03T09:24:07.260Z,2.47
2022-08-03T09:26:53.766Z,1.60
2022-08-03T09:29:23.896Z,1.73
2022-08-03T09:32:04.672Z,2.03
2022-08-03T09:34:34.785Z,2.60
2022-08-03T09:37:03.496Z,2.50
2022-08-03T09:39:41.131Z,2.40
2022-08-03T09:42:23.817Z,1.70
2022-08-03T09:44:53.681Z,1.60
2022-08-03T09:47:37.363Z,1.48
2022-08-03T09:50:14.966Z,1.40
2022-08-03T09:52:52.191Z,1.80
2022-08-03T09:55:23.697Z,1.95
2022-08-03T09:58:21.086Z,1.92
2022-08-03T10:01:05.540Z,1.55
2022-08-03T10:04:03.351Z,1.77
2022-08-03T10:06:29.460Z,1.35
2022-08-03T10:09:16.316Z,1.50
2022-08-03T10:11:44.439Z,1.30
2022-08-03T10:14:20.825Z,1.45
2022-08-03T10:16:50.182Z,1.60
2022-08-03T10:19:18.694Z,1.55
2022-08-03T10:22:12.618Z,1.55
2022-08-03T10:24:49.556Z,1.60
2022-08-03T10:27:32.051Z,1.60
2022-08-03T10:30:10.556Z,1.10
2022-08-03T10:32:57.431Z,1.77
2022-08-03T10:35:29.082Z,1.40
2022-08-03T10:38:06.543Z,1.60
2022-08-03T10:40:48.492Z,1.30
2022-08-03T10:43:49.169Z,1.55
2022-08-03T10:46:19.048Z,1.05
2022-08-03T10:48:52.034Z,1.65
2022-08-03T10:51:32.301Z,1.45
2022-08-03T10:54:02.158Z,1.63
2022-08-03T10:56:49.523Z,1.40
2022-08-03T11:00:04.126Z,1.30
2022-08-03T11:03:06.114Z,1.48
2022-08-03T11:05:37.140Z,2.95
2022-08-03T11:08:36.032Z,1.90
2022-08-03T11:11:23.705Z,2.22
2022-08-03T11:14:03.203Z,1.30
2022-08-03T11:16:51.105Z,1.50
2022-08-03T11:19:20.762Z,2.45
2022-08-03T11:21:55.300Z,1.20
2022-08-03T11:24:45.249Z,1.23
2022-08-03T11:27:27.589Z,1.40
2022-08-03T11:30:29.320Z,1.30
2022-08-03T11:33:00.834Z,1.35
2022-08-03T11:35:33.655Z,1.33
2022-08-03T11:38:15.692Z,1.60
2022-08-03T11:40:54.719Z,1.50
2022-08-03T11:43:40.663Z,1.40
2022-08-03T11:46:12.571Z,1.23
2022-08-03T11:48:46.568Z,1.42
2022-08-03T11:51:33.265Z,1.50
2022-08-03T11:54:11.864Z,1.48
2022-08-03T11:56:53.366Z,1.67
2022-08-03T11:59:42.187Z,1.83
2022-08-03T12:02:18.747Z,1.50
2022-08-03T12:05:05.701Z,2.65
2022-08-03T12:08:03.061Z,1.80
2022-08-03T12:10:28.043Z,1.60
2022-08-03T12:13:01.734Z,1.92
2022-08-03T12:15:35.631Z,1.75
2022-08-03T12:18:12.378Z,1.60
2022-08-03T12:20:39.446Z,1.48
2022-08-03T12:23:17.827Z,1.60
2022-08-03T12:25:49.552Z,1.20
2022-08-03T12:28:36.204Z,1.38
2022-08-03T12:31:14.364Z,1.30
2022-08-03T12:34:09.438Z,1.88
2022-08-03T12:36:37.600Z,1.60
2022-08-03T12:39:10.177Z,1.60
2022-08-03T12:41:42.256Z,1.52
2022-08-03T12:44:13.991Z,1.23
2022-08-03T12:46:51.083Z,1.50
2022-08-03T12:49:18.027Z,2.35
2022-08-03T12:51:47.888Z,2.30
2022-08-03T12:54:44.365Z,2.22
2022-08-03T12:57:18.853Z,1.23
2022-08-03T12:59:55.369Z,2.10
2022-08-03T13:02:33.963Z,2.10
2022-08-03T13:05:10.965Z,1.30
2022-08-03T13:07:46.451Z,1.50
2022-08-03T13:10:33.588Z,1.13
2022-08-03T13:13:03.550Z,1.30
2022-08-03T13:15:38.614Z,1.90
2022-08-03T13:18:20.828Z,1.25
2022-08-03T13:20:51.086Z,1.40
2022-08-03T13:23:27.208Z,1.27
2022-08-03T13:26:04.383Z,1.50
2022-08-03T13:28:34.073Z,1.40
2022-08-03T13:31:01.929Z,1.55
2022-08-03T13:33:32.213Z,1.30
2022-08-03T13:36:01.571Z,1.67
2022-08-03T13:38:30.989Z,1.42
2022-08-03T13:40:59.498Z,2.15
2022-08-03T13:43:32.128Z,1.52
2022-08-03T13:46:00.192Z,1.13
2022-08-03T13:48:36.210Z,1.23
2022-08-03T13:51:11.992Z,1.30
2022-08-03T13:53:59.496Z,1.67
2022-08-03T13:56:34.335Z,1.50
2022-08-03T13:59:02.613Z,1.20
2022-08-03T14:01:54.361Z,1.75
2022-08-03T14:04:22.140Z,1.65
2022-08-03T14:06:56.042Z,1.27
2022-08-03T14:09:24.112Z,1.50
2022-08-03T14:12:04.151Z,1.33
2022-08-03T14:14:35.216Z,1.13
2022-08-03T14:17:04.447Z,1.10
2022-08-03T14:19:33.397Z,1.00
2022-08-03T14:22:23.695Z,1.02
2022-08-03T14:24:51.718Z,1.48
2022-08-03T14:27:21.592Z,1.00
2022-08-03T14:29:51.075Z,1.20
2022-08-03T14:32:19.849Z,1.00
2022-08-03T14:34:47.368Z,1.27
2022-08-03T14:37:17.112Z,1.45
2022-08-03T14:40:01.213Z,1.55
2022-08-03T14:42:29.160Z,1.23
2022-08-03T14:45:03.429Z,3.45
2022-08-03T14:50:10.206Z,8.93
2022-08-03T14:50:40.030Z,1.90
2022-08-03T14:53:09.157Z,1.02
2022-08-03T14:55:49.561Z,1.20
2022-08-03T14:58:29.231Z,1.48
2022-08-03T15:00:58.416Z,1.45
2022-08-03T15:03:29.154Z,1.65
2022-08-03T15:05:57.749Z,1.40
2022-08-03T15:08:26.127Z,1.13
2022-08-03T15:11:03.483Z,1.13
2022-08-03T15:13:34.222Z,0.88
2022-08-03T15:16:03.162Z,0.90
2022-08-03T15:18:31.458Z,1.27
2022-08-03T15:20:59.645Z,1.02
2022-08-03T15:23:26.976Z,1.45
2022-08-03T15:26:27.885Z,2.28
2022-08-03T15:28:47.224Z,1.73
2022-08-03T15:31:25.431Z,1.23
2022-08-03T15:33:53.570Z,1.30
2022-08-03T15:36:23.344Z,1.40
2022-08-03T15:39:03.474Z,1.38
2022-08-03T15:41:32.418Z,1.08
2022-08-03T15:44:04.167Z,1.25
2022-08-03T15:46:35.908Z,1.10
2022-08-03T15:49:06.155Z,1.17
2022-08-03T15:51:42.467Z,0.93
2022-08-03T15:54:10.564Z,0.93
2022-08-03T15:56:39.580Z,1.15
2022-08-03T15:59:12.490Z,1.38
2022-08-03T16:01:42.644Z,1.40
2022-08-03T16:04:10.562Z,0.98
2022-08-03T16:06:39.081Z,1.00
2022-08-03T16:09:24.187Z,1.20
2022-08-03T16:11:58.119Z,1.38
2022-08-03T16:14:34.499Z,1.00
2022-08-03T16:17:08.874Z,1.40
2022-08-03T16:19:39.682Z,1.40
2022-08-03T16:22:09.574Z,1.15
2022-08-03T16:24:39.203Z,1.58
2022-08-03T16:27:15.594Z,1.20
2022-08-03T16:30:00.844Z,1.75
2022-08-03T16:32:31.138Z,2.00
2022-08-03T16:35:06.582Z,1.55
2022-08-03T16:37:50.641Z,1.77
2022-08-03T16:40:26.297Z,2.20
2022-08-03T16:42:54.019Z,2.13
2022-08-03T16:45:23.826Z,2.90
2022-08-03T16:48:01.489Z,1.75
2022-08-03T16:50:42.671Z,1.50
2022-08-03T16:53:33.130Z,1.30
2022-08-03T16:56:09.875Z,1.20
2022-08-03T16:58:42.235Z,1.35
2022-08-03T17:01:24.248Z,1.20
2022-08-03T17:04:03.308Z,1.27
2022-08-03T17:06:35.655Z,1.30
2022-08-03T17:09:18.305Z,2.03
2022-08-03T17:11:50.054Z,1.70
2022-08-03T17:14:22.827Z,1.90
2022-08-03T17:17:04.542Z,2.15
2022-08-03T17:19:36.139Z,1.70
2022-08-03T17:22:20.506Z,2.70
2022-08-03T17:24:55.820Z,4.05
2022-08-03T17:28:49.702Z,2.58
2022-08-03T17:30:31.719Z,1.80
2022-08-03T17:33:04.072Z,2.38
2022-08-03T17:35:49.471Z,2.63
2022-08-03T17:38:22.387Z,2.55
2022-08-03T17:40:52.275Z,2.58
2022-08-03T17:44:14.107Z,2.40
2022-08-03T17:46:12.255Z,2.17
2022-08-03T17:48:43.789Z,3.05
2022-08-03T17:51:46.395Z,2.85
2022-08-03T17:54:27.219Z,3.00
2022-08-03T17:58:02.101Z,9.85
2022-08-03T18:00:32.667Z,4.78
2022-08-03T18:03:59.329Z,4.57
2022-08-03T18:06:31.608Z,3.47
2022-08-03T18:10:03.731Z,3.20
2022-08-03T18:11:59.370Z,2.88
2022-08-03T18:14:57.588Z,3.38
2022-08-03T18:17:55.766Z,4.25
2022-08-03T18:23:08.930Z,5.78
2022-08-03T18:25:53.618Z,6.47
2022-08-03T18:28:31.584Z,7.60
2022-08-03T18:31:11.470Z,8.20
2022-08-03T18:34:19.273Z,7.15
2022-08-03T18:36:34.613Z,5.35
2022-08-03T18:39:03.506Z,7.07
2022-08-03T18:41:35.417Z,5.70
2022-08-03T18:44:52.631Z,5.55
2022-08-03T18:47:52.510Z,7.63
2022-08-03T18:50:49.533Z,7.63
2022-08-03T18:54:02.790Z,9.45
2022-08-03T18:56:55.575Z,10.45
2022-08-03T18:59:50.014Z,9.10
2022-08-03T19:03:04.367Z,8.32
2022-08-03T19:05:57.810Z,10.15
2022-08-03T19:09:06.620Z,9.95
2022-08-03T19:12:12.797Z,12.40
2022-08-03T19:15:03.746Z,13.93
2022-08-03T19:17:35.710Z,11.38
2022-08-03T19:20:08.365Z,16.85
2022-08-03T19:22:37.813Z,14.02
2022-08-03T19:25:12.162Z,12.27
2022-08-03T19:27:44.664Z,12.77
2022-08-03T19:30:26.525Z,12.85
2022-08-03T19:32:55.525Z,13.02
2022-08-03T19:35:46.454Z,12.65
2022-08-03T19:38:16.630Z,12.90
2022-08-03T19:41:03.628Z,12.60
2022-08-03T19:43:53.097Z,13.10
2022-08-03T19:46:31.061Z,12.60
2022-08-03T19:49:15.809Z,11.48
2022-08-03T19:52:01.367Z,14.82
2022-08-03T19:54:54.660Z,13.98
2022-08-03T19:57:32.568Z,12.27
2022-08-03T20:00:04.327Z,16.10
2022-08-03T20:02:37.357Z,14.15
2022-08-03T20:05:15.112Z,11.98
2022-08-03T20:07:49.375Z,9.55
2022-08-03T20:10:18.792Z,9.38
2022-08-03T20:12:47.325Z,7.75
2022-08-03T20:15:22.236Z,9.73
2022-08-03T20:17:58.858Z,8.90
2022-08-03T20:20:32.596Z,11.60
2022-08-03T20:23:07.975Z,10.15
2022-08-03T20:29:09.897Z,11.70
2022-08-03T20:31:37.878Z,11.93
2022-08-03T20:34:17.515Z,12.90
2022-08-03T20:36:47.716Z,13.32
2022-08-03T20:39:16.189Z,12.43
2022-08-03T20:41:47.101Z,13.88
2022-08-03T20:44:14.909Z,14.52
2022-08-03T20:46:53.502Z,14.68
2022-08-03T20:49:45.525Z,15.90
2022-08-03T20:52:22.564Z,15.60
2022-08-03T20:54:56.074Z,15.02
2022-08-03T20:57:25.006Z,14.80
2022-08-03T21:00:00.159Z,14.77
2022-08-03T21:02:29.851Z,14.30
2022-08-03T21:05:08.516Z,13.85
2022-08-03T21:08:06.267Z,12.70
2022-08-03T21:10:38.489Z,12.73
2022-08-03T21:13:41.763Z,10.73
2022-08-03T21:16:15.077Z,10.48
2022-08-03T21:19:03.693Z,9.05
2022-08-03T21:21:39.351Z,10.45
2022-08-03T21:24:11.128Z,11.88
2022-08-03T21:26:45.055Z,11.65
2022-08-03T21:29:13.864Z,11.15
2022-08-03T21:31:46.431Z,9.93
2022-08-03T21:34:16.661Z,9.30
2022-08-03T21:36:45.913Z,10.40
2022-08-03T21:39:14.160Z,10.80
2022-08-03T21:41:43.590Z,10.25
2022-08-03T21:44:11.959Z,13.63
2022-08-03T21:46:41.010Z,15.80
2022-08-03T21:50:05.703Z,35.65
2022-08-03T21:52:08.905Z,16.58
2022-08-03T21:54:42.274Z,15.43
2022-08-03T21:57:24.579Z,11.68
2022-08-03T22:00:13.606Z,11.45
2022-08-03T22:02:45.630Z,10.60
2022-08-03T22:05:43.648Z,10.30
2022-08-03T22:08:17.541Z,10.30
2022-08-03T22:10:47.596Z,9.98
2022-08-03T22:13:43.063Z,9.20
2022-08-03T22:16:10.971Z,12.75
2022-08-03T22:18:47.314Z,10.85
2022-08-03T22:21:28.095Z,11.50
2022-08-03T22:24:13.109Z,9.63
2022-08-03T22:26:49.695Z,9.70
2022-08-03T22:29:18.028Z,8.85
2022-08-03T22:31:58.381Z,13.93
2022-08-03T22:34:29.654Z,14.02
2022-08-03T22:37:03.701Z,9.55
2022-08-03T22:39:39.350Z,9.32
2022-08-03T22:42:08.339Z,10.07
2022-08-03T22:44:36.227Z,10.50
2022-08-03T22:47:12.854Z,10.35
2022-08-03T22:49:45.141Z,11.00
2022-08-03T22:52:21.847Z,10.82
2022-08-03T22:54:55.208Z,8.85
2022-08-03T22:57:25.665Z,9.50
2022-08-03T22:59:54.600Z,10.00
2022-08-03T23:02:25.941Z,9.30
2022-08-03T23:04:59.911Z,7.15
2022-08-03T23:07:39.455Z,6.90
2022-08-03T23:10:17.905Z,7.22
2022-08-03T23:12:50.842Z,8.85
2022-08-03T23:15:26.385Z,6.45
2022-08-03T23:17:58.813Z,5.72
2022-08-03T23:23:14.378Z,5.80
2022-08-03T23:25:56.061Z,6.32
2022-08-03T23:28:29.036Z,5.72
2022-08-03T23:31:11.906Z,7.60
2022-08-03T23:33:43.335Z,5.65
2022-08-03T23:36:31.052Z,6.68
2022-08-03T23:39:08.361Z,5.50
2022-08-03T23:41:35.963Z,6.63
2022-08-03T23:44:06.689Z,9.18
2022-08-03T23:46:37.164Z,7.00
2022-08-03T23:49:12.846Z,5.68
2022-08-03T23:52:06.422Z,5.18
2022-08-03T23:55:21.356Z,5.13
2022-08-03T23:58:23.058Z,4.70
